Time;durP1;ratioP1;P1;durP2;ratioP2;P2;SDS_P1;SDS_P2;PMS_P1;PMS_P2;Temp;Humidity;BMP_temperature;BMP_pressure;BME280_temperature;BME280_humidity;BME280_pressure;Samples;Min_cycle;Max_cycle;Signal;HPM_P1;HPM_P2
2022/10/15 00:00:08;;;;;;;6.53;2.13;;;13.70;99.90;;;12.87;100.00;96675.81;5029979;28;21057;-70
2022/10/15 00:02:34;;;;;;;7.72;2.20;;;13.70;99.90;;;12.83;100.00;96674.81;5029723;28;20904;-71
2022/10/15 00:04:59;;;;;;;6.70;2.30;;;13.70;99.90;;;12.83;100.00;96674.03;5029457;28;20493;-70
2022/10/15 00:07:28;;;;;;;2.17;1.67;;;13.60;99.90;;;12.87;100.00;96673.16;5028675;28;20510;-71
2022/10/15 00:09:55;;;;;;;5.38;1.70;;;13.70;99.90;;;12.85;100.00;96670.03;5029841;28;20894;-71
2022/10/15 00:12:21;;;;;;;8.07;1.90;;;13.70;99.90;;;12.85;100.00;96667.34;5029652;28;20411;-71
2022/10/15 00:14:47;;;;;;;7.40;1.95;;;13.70;99.90;;;12.85;100.00;96666.56;5027913;28;20437;-71
2022/10/15 00:17:12;;;;;;;5.80;1.90;;;13.70;99.90;;;12.85;100.00;96661.25;5029909;28;20407;-71
2022/10/15 00:19:38;;;;;;;4.35;1.60;;;13.70;99.90;;;12.88;100.00;96658.00;5032694;28;20892;-70
2022/10/15 00:22:04;;;;;;;6.47;2.10;;;13.70;99.90;;;12.88;100.00;96668.66;5033253;28;20760;-70
2022/10/15 00:24:30;;;;;;;2.38;1.60;;;13.70;99.90;;;12.95;100.00;96671.75;5032770;28;20403;-70
2022/10/15 00:26:57;;;;;;;4.15;1.70;;;13.70;99.90;;;12.96;100.00;96673.34;5033316;28;20407;-70
2022/10/15 00:29:23;;;;;;;10.30;2.10;;;13.80;99.90;;;12.93;100.00;96666.72;5033171;28;20403;-69
2022/10/15 00:31:49;;;;;;;4.38;1.80;;;13.80;99.90;;;12.91;100.00;96666.22;5033118;28;20894;-70
2022/10/15 00:34:15;;;;;;;2.95;1.50;;;13.80;99.90;;;12.94;100.00;96667.50;5032652;28;20411;-70
2022/10/15 00:36:41;;;;;;;3.28;1.67;;;13.80;99.90;;;12.92;100.00;96667.03;5033094;28;20844;-70
2022/10/15 00:39:07;;;;;;;2.63;1.43;;;13.80;99.90;;;12.91;100.00;96679.50;5033062;28;20591;-70
2022/10/15 00:41:36;;;;;;;2.67;1.65;;;13.70;99.90;;;12.91;100.00;96673.41;5032936;28;20403;-70
2022/10/15 00:44:53;;;;;;;2.67;1.40;;;13.70;99.90;;;12.92;100.00;96667.81;5032495;28;20402;-70
2022/10/15 00:47:26;;;;;;;2.97;1.63;;;13.80;99.90;;;12.92;100.00;96662.50;5032934;28;20395;-70
2022/10/15 00:50:00;;;;;;;1.95;1.38;;;13.80;99.90;;;12.98;100.00;96668.53;5032992;28;20397;-70
2022/10/15 00:52:34;;;;;;;3.47;1.50;;;13.80;99.90;;;12.97;100.00;96661.63;5032826;28;20403;-70
2022/10/15 00:55:05;;;;;;;3.40;1.42;;;13.80;99.90;;;13.01;100.00;96654.66;5032364;28;20502;-71
2022/10/15 00:57:32;;;;;;;3.40;1.40;;;13.80;99.90;;;12.96;100.00;96655.53;5032774;28;20407;-71
2022/10/15 01:00:06;;;;;;;2.43;1.30;;;13.80;99.90;;;12.95;100.00;96655.81;5032660;28;20966;-71
2022/10/15 01:02:32;;;;;;;5.20;1.58;;;13.80;99.90;;;12.96;100.00;96657.41;5032531;28;20792;-71
2022/10/15 01:04:58;;;;;;;1.10;1.00;;;13.80;99.90;;;13.09;100.00;96651.38;5032115;28;20443;-70
2022/10/15 01:07:24;;;;;;;6.30;1.70;;;13.80;99.90;;;13.01;100.00;96650.16;5032613;28;20411;-70
2022/10/15 01:09:50;;;;;;;2.33;1.30;;;13.90;99.90;;;13.05;100.00;96647.72;5032523;28;20403;-70
2022/10/15 01:12:27;;;;;;;4.53;1.60;;;13.90;99.90;;;13.05;100.00;96647.72;5032234;28;20414;-71
2022/10/15 01:15:05;;;;;;;3.15;1.40;;;13.90;99.90;;;13.06;100.00;96636.03;5031994;28;20419;-70
2022/10/15 01:17:39;;;;;;;3.75;1.30;;;13.90;99.90;;;13.07;100.00;96637.63;5032299;28;20494;-70
2022/10/15 01:20:42;;;;;;;4.47;1.50;;;13.90;99.90;;;13.06;100.00;96634.16;5032385;28;20495;-70
2022/10/15 01:23:44;;;;;;;5.25;1.30;;;13.90;99.90;;;13.03;100.00;96645.34;5031873;28;20489;-70
2022/10/15 01:26:56;;;;;;;3.45;1.20;;;13.90;99.90;;;13.03;100.00;96634.72;5032209;28;20403;-70
2022/10/15 01:29:46;;;;;;;9.07;1.97;;;13.90;99.90;;;13.02;100.00;96633.13;5021387;28;20458;-70
2022/10/15 01:32:21;;;;;;;3.22;1.30;;;13.90;99.90;;;13.04;100.00;96627.53;5032092;28;20765;-70
2022/10/15 01:34:54;;;;;;;4.15;1.30;;;13.90;99.90;;;13.06;100.00;96631.50;5031519;28;20892;-70
2022/10/15 01:37:27;;;;;;;4.68;1.40;;;13.90;99.90;;;13.09;100.00;96627.47;5032041;28;20498;-71
2022/10/15 01:40:02;;;;;;;3.30;1.48;;;13.90;99.90;;;13.09;100.00;96627.47;5032078;28;20403;-71
2022/10/15 01:42:33;;;;;;;3.65;1.40;;;13.90;99.90;;;13.07;100.00;96630.44;5031820;28;20819;-70
2022/10/15 01:45:07;;;;;;;2.72;1.40;;;13.90;99.90;;;13.08;100.00;96620.59;5031369;28;20398;-70
2022/10/15 01:47:41;;;;;;;28.90;2.40;;;13.90;99.90;;;13.10;100.00;96619.22;5031840;28;20982;-70
2022/10/15 01:50:10;;;;;;;3.17;1.52;;;14.00;99.90;;;13.10;100.00;96616.56;5031802;28;20469;-71
2022/10/15 01:52:39;;;;;;;2.92;1.40;;;13.90;99.90;;;13.10;100.00;96608.59;5031546;28;20410;-70
2022/10/15 01:55:10;;;;;;;3.45;1.38;;;13.90;99.90;;;13.10;100.00;96608.59;5031324;28;20469;-70
2022/10/15 01:57:40;;;;;;;2.10;1.30;;;13.90;99.90;;;13.13;100.00;96615.25;5031591;28;20493;-71
2022/10/15 02:00:07;;;;;;;2.70;1.25;;;14.00;99.90;;;13.17;100.00;96606.41;5031579;28;20525;-70
2022/10/15 02:02:35;;;;;;;3.15;1.25;;;14.00;99.90;;;13.21;100.00;96608.50;5031556;28;20396;-70
2022/10/15 02:05:01;;;;;;;6.60;1.40;;;14.00;99.90;;;13.20;100.00;96612.22;5031007;28;20399;-71
2022/10/15 02:07:38;;;;;;;4.63;1.35;;;14.00;99.90;;;13.22;100.00;96616.19;5031383;28;20407;-70
2022/10/15 02:10:11;;;;;;;6.47;1.47;;;14.10;99.90;;;13.21;100.00;96624.44;5031383;28;20402;-70
2022/10/15 02:12:49;;;;;;;2.88;1.50;;;14.00;99.90;;;13.17;100.00;96618.91;5030924;28;20498;-70
2022/10/15 02:15:21;;;;;;;2.70;1.20;;;14.00;99.90;;;13.19;100.00;96622.06;5031145;28;20415;-70
2022/10/15 02:18:01;;;;;;;9.93;1.73;;;14.00;99.90;;;13.23;100.00;96617.75;5031307;28;20395;-70
2022/10/15 02:20:34;;;;;;;13.97;1.57;;;14.10;99.90;;;13.20;100.00;96614.88;5031270;28;20475;-70
2022/10/15 02:23:06;;;;;;;10.60;1.70;;;14.00;99.90;;;13.22;100.00;96613.53;5030710;28;20441;-70
2022/10/15 02:25:34;;;;;;;2.42;1.35;;;14.10;99.90;;;13.25;100.00;96615.59;5031046;28;20400;-70
2022/10/15 02:28:03;;;;;;;1.17;1.08;;;14.10;99.90;;;13.20;100.00;96613.03;5030999;28;20502;-70
2022/10/15 02:30:31;;;;;;;3.35;1.40;;;14.10;99.90;;;13.21;100.00;96617.25;5029663;28;20411;-70
2022/10/15 02:32:59;;;;;;;3.33;1.00;;;14.00;99.90;;;13.24;100.00;96621.19;5030470;28;20466;-71
2022/10/15 02:35:26;;;;;;;1.85;1.30;;;14.00;99.90;;;13.25;100.00;96625.44;5030767;28;20419;-71
2022/10/15 02:37:56;;;;;;;1.23;1.02;;;14.10;99.90;;;13.32;100.00;96625.88;5030967;28;20399;-71
2022/10/15 02:40:28;;;;;;;4.63;1.10;;;14.10;99.90;;;13.29;100.00;96621.16;5030646;28;20399;-71
2022/10/15 02:42:55;;;;;;;4.30;1.05;;;14.10;99.90;;;13.31;100.00;96626.94;5030157;28;20959;-69
2022/10/15 02:45:21;;;;;;;6.13;1.30;;;14.10;99.90;;;13.27;100.00;96629.41;5030760;28;20927;-70
2022/10/15 02:47:47;;;;;;;10.43;1.52;;;14.10;99.90;;;13.30;100.00;96630.72;5030709;28;20403;-70
2022/10/15 02:50:14;;;;;;;1.30;1.00;;;14.10;99.90;;;13.31;100.00;96627.75;5030868;28;20892;-70
2022/10/15 02:52:40;;;;;;;6.95;1.08;;;14.10;99.90;;;13.28;100.00;96628.34;5030339;28;20406;-71
2022/10/15 02:55:07;;;;;;;1.70;1.13;;;14.10;99.90;;;13.31;100.00;96632.25;5030438;28;20419;-70
2022/10/15 02:57:33;;;;;;;2.65;1.05;;;14.10;99.90;;;13.34;100.00;96631.69;5030622;28;20403;-70
2022/10/15 02:59:59;;;;;;;4.50;1.17;;;14.20;99.90;;;13.33;100.00;96628.25;5030603;28;20409;-70
2022/10/15 03:02:25;;;;;;;5.60;1.30;;;14.20;99.90;;;13.32;100.00;96642.63;5030442;28;20500;-71
2022/10/15 03:04:50;;;;;;;2.43;1.20;;;14.20;99.90;;;13.32;100.00;96633.84;5030102;28;20403;-71
2022/10/15 03:07:18;;;;;;;2.40;1.00;;;14.20;99.90;;;13.34;100.00;96634.38;5030485;28;20465;-70
2022/10/15 03:09:43;;;;;;;2.58;1.17;;;14.20;99.90;;;13.35;100.00;96638.59;5030453;28;20422;-70
2022/10/15 03:12:09;;;;;;;2.25;0.90;;;14.20;99.90;;;13.40;100.00;96641.97;5030342;28;20892;-70
2022/10/15 03:14:35;;;;;;;1.70;1.00;;;14.20;99.90;;;13.41;100.00;96645.44;5029832;28;20422;-70
2022/10/15 03:17:01;;;;;;;2.85;1.15;;;14.20;99.90;;;13.39;100.00;96642.25;5030407;28;20395;-71
2022/10/15 03:19:27;;;;;;;1.90;1.00;;;14.20;99.90;;;13.37;100.00;96637.25;5030428;28;20470;-71
2022/10/15 03:21:53;;;;;;;2.77;0.90;;;14.20;99.90;;;13.41;100.00;96632.13;5030266;28;20403;-70
2022/10/15 03:24:20;;;;;;;2.40;1.00;;;14.30;99.90;;;13.42;100.00;96645.16;5029890;28;20403;-72
2022/10/15 03:26:46;;;;;;;2.53;0.90;;;14.30;99.90;;;13.39;100.00;96629.75;5030338;28;20454;-71
2022/10/15 03:29:12;;;;;;;3.50;0.95;;;14.30;99.90;;;13.40;100.00;96643.84;5030285;28;20417;-72
2022/10/15 03:31:38;;;;;;;3.33;1.20;;;14.20;99.90;;;13.39;100.00;96637.72;5030207;28;20399;-71
2022/10/15 03:34:04;;;;;;;1.80;1.00;;;14.30;99.90;;;13.42;100.00;96650.47;5029718;28;20419;-71
2022/10/15 03:36:30;;;;;;;2.92;1.10;;;14.30;99.90;;;13.40;100.00;96639.31;5030127;28;20891;-71
2022/10/15 03:38:56;;;;;;;1.30;0.90;;;14.20;99.90;;;13.42;100.00;96642.50;5030225;28;20481;-72
2022/10/15 03:41:24;;;;;;;7.28;1.10;;;14.30;99.90;;;13.42;100.00;96644.34;5030279;28;20490;-71
2022/10/15 03:43:49;;;;;;;0.93;0.85;;;14.30;99.90;;;13.40;100.00;96649.16;5029827;28;20407;-72
2022/10/15 03:46:15;;;;;;;6.70;1.03;;;14.30;99.90;;;13.41;100.00;96648.88;5030062;28;20464;-71
2022/10/15 03:48:41;;;;;;;1.67;0.70;;;14.30;99.90;;;13.42;100.00;96650.47;5030255;28;20418;-72
2022/10/15 03:51:07;;;;;;;1.30;0.80;;;14.30;99.90;;;13.49;100.00;96661.53;5030064;28;20398;-71
2022/10/15 03:53:33;;;;;;;2.70;0.90;;;14.30;99.90;;;13.51;100.00;96666.56;5031165;28;20422;-71
2022/10/15 03:56:03;;;;;;;0.95;0.73;;;14.40;99.90;;;13.52;100.00;96665.50;5032396;28;20426;-71
2022/10/15 03:58:30;;;;;;;4.93;0.90;;;14.30;99.90;;;13.49;100.00;96668.72;5033864;28;20422;-71
2022/10/15 04:00:56;;;;;;;3.90;1.03;;;14.30;99.90;;;13.46;100.00;96675.38;5033784;28;20409;-71
2022/10/15 04:03:22;;;;;;;2.42;0.90;;;14.30;99.90;;;13.53;100.00;96675.06;5033286;28;20411;-71
2022/10/15 04:05:50;;;;;;;1.52;0.93;;;14.30;99.90;;;13.52;100.00;96665.50;5033612;28;20399;-72
2022/10/15 04:08:16;;;;;;;7.80;1.00;;;14.40;99.90;;;13.50;100.00;96668.44;5033550;28;20502;-71
2022/10/15 04:10:42;;;;;;;2.70;0.80;;;14.30;99.90;;;13.48;100.00;96667.91;5033568;28;20411;-71
2022/10/15 04:13:07;;;;;;;1.98;0.95;;;14.30;99.90;;;13.48;100.00;96675.91;5058731;22;20420;-75
2022/10/15 04:15:38;;;;;;;1.00;0.77;;;14.30;99.90;;;13.46;100.00;96674.59;5053353;28;20511;-74
2022/10/15 04:18:04;;;;;;;1.40;0.80;;;14.30;99.90;;;13.60;100.00;96678.16;5053380;28;20410;-74
2022/10/15 04:20:30;;;;;;;3.00;0.90;;;14.40;99.90;;;13.56;100.00;96677.13;5053408;28;20773;-74
2022/10/15 04:22:56;;;;;;;1.60;0.97;;;14.40;99.90;;;13.54;100.00;96671.28;5039744;28;20411;-74
2022/10/15 04:25:22;;;;;;;2.27;0.90;;;14.40;99.90;;;13.54;100.00;96687.25;5033256;28;20679;-75
2022/10/15 04:27:47;;;;;;;1.20;0.90;;;14.40;99.90;;;13.59;100.00;96684.53;5032060;28;20556;-74
2022/10/15 04:30:14;;;;;;;1.13;0.75;;;14.40;99.90;;;13.57;100.00;96684.81;5033270;28;20493;-74
2022/10/15 04:32:41;;;;;;;1.90;0.80;;;14.40;99.90;;;13.54;100.00;96688.03;5032957;28;20407;-74
2022/10/15 04:35:07;;;;;;;2.10;0.90;;;14.40;99.90;;;13.53;100.00;96686.47;5032847;28;20415;-75
2022/10/15 04:37:34;;;;;;;2.10;0.80;;;14.40;99.90;;;13.58;100.00;96677.63;5033003;28;20885;-75
2022/10/15 04:40:00;;;;;;;2.75;0.98;;;14.40;99.90;;;13.57;100.00;96687.47;5032988;28;20399;-75
2022/10/15 04:42:28;;;;;;;1.55;0.82;;;14.40;99.90;;;13.52;100.00;96687.56;5033047;28;20413;-75
2022/10/15 04:44:54;;;;;;;0.90;0.80;;;14.40;99.90;;;13.54;100.00;96676.63;5032661;28;20406;-76
2022/10/15 04:47:19;;;;;;;2.45;0.90;;;14.40;99.90;;;13.51;100.00;96685.19;5033023;28;20431;-75
2022/10/15 04:49:47;;;;;;;3.40;0.80;;;14.30;99.90;;;13.50;100.00;96688.91;5032824;28;20514;-76
2022/10/15 04:52:13;;;;;;;0.95;0.80;;;14.30;99.90;;;13.49;100.00;96688.13;5032797;28;20410;-76
2022/10/15 04:54:39;;;;;;;1.60;0.70;;;14.30;99.90;;;13.50;100.00;96700.34;5032297;28;20493;-76
2022/10/15 04:57:06;;;;;;;1.60;0.80;;;14.30;99.90;;;13.58;100.00;96696.25;5032826;28;21030;-75
2022/10/15 04:59:32;;;;;;;3.60;0.90;;;14.40;99.90;;;13.58;100.00;96706.88;5031529;28;20841;-76
2022/10/15 05:01:58;;;;;;;2.83;0.80;;;14.40;99.90;;;13.54;100.00;96695.22;5032832;28;20577;-76
2022/10/15 05:04:24;;;;;;;2.47;0.80;;;14.40;99.90;;;13.54;100.00;96698.69;5031901;28;20908;-76
2022/10/15 05:06:51;;;;;;;1.95;0.80;;;14.40;99.90;;;13.50;100.00;96696.88;5032540;28;20884;-76
2022/10/15 05:09:17;;;;;;;2.05;0.98;;;14.30;99.90;;;13.48;100.00;96707.00;5032512;28;20407;-75
2022/10/15 05:11:43;;;;;;;1.10;0.90;;;14.30;99.90;;;13.48;100.00;96707.81;5032286;28;20409;-75
2022/10/15 05:14:09;;;;;;;2.58;0.98;;;14.30;99.90;;;13.50;100.00;96704.88;5032212;28;20478;-75
2022/10/15 05:16:35;;;;;;;1.90;0.90;;;14.30;99.90;;;13.49;100.00;96708.59;5032361;28;20487;-76
2022/10/15 05:19:04;;;;;;;0.90;0.80;;;14.30;99.90;;;13.48;100.00;96710.47;5032339;28;20768;-75
2022/10/15 05:21:31;;;;;;;0.60;0.60;;;14.30;99.90;;;13.49;100.00;96714.72;5032348;28;20896;-76
2022/10/15 05:23:59;;;;;;;1.60;0.70;;;14.30;99.90;;;13.49;100.00;96727.22;5031985;28;20480;-76
2022/10/15 05:26:27;;;;;;;1.17;0.70;;;14.30;99.90;;;13.51;100.00;96733.84;5032177;28;20403;-76
2022/10/15 05:28:56;;;;;;;2.92;0.80;;;14.30;99.90;;;13.49;100.00;96735.97;5032256;28;20461;-76
2022/10/15 05:31:25;;;;;;;2.60;0.80;;;14.30;99.90;;;13.49;100.00;96730.66;5032042;28;20395;-76
2022/10/15 05:33:53;;;;;;;0.65;0.65;;;14.30;99.90;;;13.47;100.00;96730.16;5031778;28;20406;-76
2022/10/15 05:36:22;;;;;;;1.42;0.90;;;14.30;99.90;;;13.49;100.00;96740.50;5029415;28;20426;-76
2022/10/15 05:38:51;;;;;;;2.27;1.00;;;14.30;99.90;;;13.48;100.00;96739.72;5024278;28;20940;-76
2022/10/15 05:41:19;;;;;;;3.37;0.90;;;14.30;99.90;;;13.48;100.00;96753.00;5032010;28;20446;-76
2022/10/15 05:43:46;;;;;;;3.27;0.90;;;14.30;99.90;;;13.48;100.00;96750.34;5031625;28;20403;-76
2022/10/15 05:46:12;;;;;;;1.40;0.80;;;14.30;99.90;;;13.49;100.00;96751.13;5031849;28;20403;-76
2022/10/15 05:48:38;;;;;;;2.47;1.00;;;14.30;99.90;;;13.45;100.00;96750.13;5031806;28;20429;-76
2022/10/15 05:51:06;;;;;;;1.97;0.90;;;14.30;99.90;;;13.44;100.00;96743.22;5031750;28;20435;-76
2022/10/15 05:53:32;;;;;;;1.65;1.10;;;14.30;99.90;;;13.40;100.00;96750.97;5031304;28;20461;-76
2022/10/15 05:55:58;;;;;;;2.30;1.00;;;14.30;99.90;;;13.39;100.00;96749.38;5031621;28;20419;-75
2022/10/15 05:58:26;;;;;;;1.80;1.20;;;14.20;99.90;;;13.41;100.00;96752.56;5031769;28;20491;-73
2022/10/15 06:00:53;;;;;;;7.10;1.10;;;14.30;99.90;;;13.40;100.00;96760.81;5031674;28;20769;-74
2022/10/15 06:03:19;;;;;;;4.63;1.25;;;14.20;99.90;;;13.37;100.00;96762.19;5031011;28;20968;-73
2022/10/15 06:05:45;;;;;;;3.03;1.30;;;14.20;99.90;;;13.38;100.00;96765.66;5031267;28;20395;-73
2022/10/15 06:08:11;;;;;;;2.20;1.20;;;14.20;99.90;;;13.39;100.00;96764.53;5029134;28;20509;-73
2022/10/15 06:10:37;;;;;;;1.77;1.10;;;14.20;99.90;;;13.39;100.00;96777.84;5023699;28;20457;-73
2022/10/15 06:13:03;;;;;;;2.63;1.40;;;14.20;99.90;;;13.40;100.00;96787.41;5026159;28;20429;-74
2022/10/15 06:15:30;;;;;;;4.20;1.40;;;14.20;99.90;;;13.43;100.00;96787.63;5025918;28;20419;-74
2022/10/15 06:17:56;;;;;;;1.98;1.40;;;14.30;99.90;;;13.43;100.00;96784.97;5030016;28;20415;-75
2022/10/15 06:20:22;;;;;;;1.50;1.20;;;14.30;99.90;;;13.40;100.00;96782.88;5027741;28;20421;-75
2022/10/15 06:22:48;;;;;;;3.45;1.23;;;14.20;99.90;;;13.40;100.00;96792.72;5023187;28;20426;-77
2022/10/15 06:25:14;;;;;;;1.30;1.15;;;14.20;99.90;;;13.55;100.00;96803.19;5027973;28;20415;-75
2022/10/15 06:27:40;;;;;;;2.40;1.35;;;14.30;99.90;;;13.49;100.00;96799.78;5027386;28;20429;-74
2022/10/15 06:30:08;;;;;;;5.80;1.30;;;14.30;99.90;;;13.41;100.00;96803.06;5025409;28;20466;-74
2022/10/15 06:32:35;;;;;;;4.10;1.40;;;14.30;99.90;;;13.39;100.00;96805.22;5029475;28;20423;-74
2022/10/15 06:35:01;;;;;;;3.78;1.38;;;14.20;99.90;;;13.37;100.00;96810.03;5030285;28;20422;-74
2022/10/15 06:37:28;;;;;;;3.67;1.50;;;14.20;99.90;;;13.36;100.00;96821.75;5030909;28;20403;-74
2022/10/15 06:39:54;;;;;;;1.70;1.33;;;14.20;99.90;;;13.36;100.00;96827.06;5030873;28;20461;-74
2022/10/15 06:42:20;;;;;;;2.97;1.50;;;14.20;99.90;;;13.37;100.00;96831.31;5030818;28;20402;-74
2022/10/15 06:44:46;;;;;;;3.42;1.58;;;14.20;99.90;;;13.44;100.00;96828.31;5030282;28;20406;-74
2022/10/15 06:47:12;;;;;;;4.07;1.75;;;14.30;99.90;;;13.40;100.00;96828.06;5030775;28;20492;-73
2022/10/15 06:49:39;;;;;;;4.03;1.60;;;14.30;99.90;;;13.40;100.00;96828.06;5028823;28;20411;-75
2022/10/15 06:52:05;;;;;;;4.00;1.60;;;14.30;99.90;;;13.41;100.00;96823.53;5026717;28;20420;-75
2022/10/15 06:54:31;;;;;;;4.50;1.77;;;14.30;99.90;;;13.40;100.00;96832.59;5042717;28;20423;-74
2022/10/15 06:56:57;;;;;;;6.68;1.60;;;14.30;99.90;;;13.38;100.00;96848.81;5026246;28;20447;-72
2022/10/15 06:59:22;;;;;;;4.13;1.70;;;14.20;99.90;;;13.39;100.00;96838.97;5030415;28;20855;-72
2022/10/15 07:01:48;;;;;;;2.60;1.98;;;14.20;99.90;;;13.37;100.00;96847.25;5030391;28;20502;-73
2022/10/15 07:04:14;;;;;;;4.97;1.90;;;14.20;99.90;;;13.35;100.00;96857.38;5030227;28;20411;-74
2022/10/15 07:06:41;;;;;;;2.97;1.83;;;14.20;99.90;;;13.34;100.00;96858.44;5029075;28;20430;-74
2022/10/15 07:09:07;;;;;;;2.67;1.70;;;14.20;99.90;;;13.36;100.00;96866.94;5030215;28;20403;-74
2022/10/15 07:11:33;;;;;;;3.05;2.08;;;14.20;99.90;;;13.34;100.00;96861.09;5030376;28;20418;-74
2022/10/15 07:13:59;;;;;;;3.63;2.00;;;14.20;99.90;;;13.34;100.00;96866.41;5030016;28;20438;-75
2022/10/15 07:16:25;;;;;;;5.75;1.90;;;14.20;99.90;;;13.32;100.00;96868.56;5030353;28;21140;-75
2022/10/15 07:18:51;;;;;;;4.30;2.30;;;14.20;99.90;;;13.34;100.00;96871.72;5030353;28;20407;-75
2022/10/15 07:21:17;;;;;;;5.57;2.00;;;14.20;99.90;;;13.36;100.00;96872.25;5030336;28;20443;-75
2022/10/15 07:23:44;;;;;;;4.72;1.98;;;14.20;99.90;;;13.38;100.00;96871.97;5028932;28;20511;-73
2022/10/15 07:26:11;;;;;;;5.07;2.17;;;14.20;99.90;;;13.42;100.00;96878.31;5029838;28;20399;-73
2022/10/15 07:28:37;;;;;;;3.10;2.03;;;14.30;99.90;;;13.43;100.00;96880.69;5033608;28;20469;-75
2022/10/15 07:31:06;;;;;;;4.78;2.03;;;14.30;99.90;;;13.47;100.00;96879.03;5034196;28;20403;-74
2022/10/15 07:33:33;;;;;;;4.38;2.10;;;14.30;99.90;;;13.49;100.00;96884.09;5033712;28;20895;-74
2022/10/15 07:36:03;;;;;;;5.22;2.00;;;14.30;99.90;;;13.52;100.00;96879.00;5034078;28;20750;-75
2022/10/15 07:38:29;;;;;;;7.00;2.00;;;14.30;99.90;;;13.49;100.00;96895.50;5034191;28;20415;-74
2022/10/15 07:40:59;;;;;;;6.60;1.92;;;14.30;99.90;;;13.51;100.00;96890.72;5034159;28;20403;-74
2022/10/15 07:43:25;;;;;;;6.65;2.55;;;14.30;99.90;;;13.58;100.00;96890.38;5032099;28;20521;-74
2022/10/15 07:45:51;;;;;;;4.30;2.10;;;14.40;99.90;;;13.60;100.00;96898.09;5033862;28;20403;-75
2022/10/15 07:48:17;;;;;;;4.72;2.05;;;14.40;99.90;;;13.65;100.00;96892.69;5034150;28;20411;-74
2022/10/15 07:50:43;;;;;;;5.10;1.90;;;14.40;99.90;;;13.65;100.00;96896.16;5034026;28;20414;-75
2022/10/15 07:53:09;;;;;;;3.30;2.03;;;14.50;99.90;;;13.66;100.00;96899.59;5033507;28;20410;-75
2022/10/15 07:55:35;;;;;;;2.83;1.88;;;14.50;99.90;;;13.71;100.00;96904.88;5033780;28;20754;-75
2022/10/15 07:58:04;;;;;;;5.28;2.10;;;14.50;99.90;;;13.68;100.00;96903.56;5033788;28;20445;-75
2022/10/15 08:00:31;;;;;;;6.80;2.20;;;14.50;99.90;;;13.68;100.00;96908.09;5033589;28;20413;-75
2022/10/15 08:02:57;;;;;;;5.70;2.10;;;14.50;99.90;;;13.64;100.00;96912.38;5032303;28;20414;-75
2022/10/15 08:05:23;;;;;;;5.35;2.10;;;14.50;99.90;;;13.66;100.00;96905.72;5033692;28;20426;-76
2022/10/15 08:07:48;;;;;;;10.75;2.50;;;14.50;99.90;;;13.66;100.00;96912.91;5033770;28;20399;-76
2022/10/15 08:10:14;;;;;;;5.82;2.47;;;14.50;99.90;;;13.69;100.00;96921.09;5033820;28;20777;-76
2022/10/15 08:12:41;;;;;;;8.25;2.50;;;14.50;99.90;;;13.70;100.00;96912.03;5033084;28;20407;-75
2022/10/15 08:15:09;;;;;;;6.43;2.42;;;14.50;99.90;;;13.72;100.00;96914.44;5033365;28;20791;-76
2022/10/15 08:17:35;;;;;;;6.30;2.47;;;14.50;99.90;;;13.74;100.00;96915.75;5033522;28;20853;-76
2022/10/15 08:20:01;;;;;;;7.15;2.03;;;14.60;99.90;;;13.70;100.00;96911.25;5033492;28;20410;-76
2022/10/15 08:22:27;;;;;;;2.85;1.80;;;14.50;99.90;;;13.85;100.00;96908.44;5033262;28;20399;-76
2022/10/15 08:24:53;;;;;;;5.90;2.08;;;14.60;99.90;;;13.83;100.00;96910.59;5033113;28;20757;-76
2022/10/15 08:27:18;;;;;;;4.38;2.00;;;14.60;99.90;;;13.84;100.00;96907.63;5033509;28;20407;-76
2022/10/15 08:29:45;;;;;;;4.72;2.10;;;14.70;99.90;;;13.91;100.00;96904.63;5033384;28;20399;-76
2022/10/15 08:32:13;;;;;;;4.60;2.10;;;14.70;99.90;;;14.00;100.00;96908.25;5033376;28;20461;-76
2022/10/15 08:34:38;;;;;;;6.00;1.77;;;14.80;99.90;;;14.07;100.00;96900.72;5032713;28;20423;-76
2022/10/15 08:37:04;;;;;;;4.18;1.60;;;14.90;99.90;;;14.22;100.00;96905.84;5033334;28;20484;-76
2022/10/15 08:39:30;;;;;;;4.78;1.45;;;15.00;99.90;;;14.29;100.00;96900.97;5032569;28;20567;-76
2022/10/15 08:42:01;;;;;;;3.13;1.20;;;15.10;99.90;;;14.27;100.00;96905.00;5033147;28;20845;-76
2022/10/15 08:44:37;;;;;;;3.72;1.40;;;15.10;99.90;;;14.26;100.00;96916.75;5032838;28;20915;-76
2022/10/15 08:47:12;;;;;;;2.30;1.35;;;15.10;99.90;;;14.22;100.00;96918.38;5033270;28;20852;-76
2022/10/15 08:49:45;;;;;;;5.05;1.15;;;15.00;99.90;;;14.16;100.00;96927.50;5033244;28;20464;-76
2022/10/15 08:52:23;;;;;;;1.50;0.98;;;15.00;99.90;;;14.30;100.00;96928.38;5033298;28;20407;-76
2022/10/15 08:54:49;;;;;;;2.67;1.73;;;15.10;99.90;;;14.23;100.00;96926.06;5032727;28;20441;-75
2022/10/15 08:57:36;;;;;;;14.15;8.55;;;15.00;99.90;;;14.19;100.00;96934.94;5032929;28;20408;-75
2022/10/15 09:00:11;;;;;;;8.00;4.70;;;15.00;99.90;;;14.12;100.00;96924.63;5032886;28;20441;-75
2022/10/15 09:02:45;;;;;;;3.83;0.93;;;14.90;99.90;;;14.19;100.00;96927.75;5032578;28;20490;-76
2022/10/15 09:05:29;;;;;;;8.68;6.88;;;15.00;99.90;;;14.19;100.00;96924.28;5032680;28;20396;-75
2022/10/15 09:08:06;;;;;;;3.13;2.17;;;15.00;99.90;;;14.14;100.00;96935.75;5032630;28;20421;-74
2022/10/15 09:10:42;;;;;;;2.42;1.70;;;14.90;99.90;;;14.16;100.00;96928.28;5032574;28;20485;-75
2022/10/15 09:13:13;;;;;;;2.13;1.00;;;14.90;99.90;;;14.13;100.00;96928.88;5031959;28;20411;-75
2022/10/15 09:15:49;;;;;;;6.13;2.67;;;14.90;99.90;;;14.13;100.00;96930.75;5032342;28;20423;-74
2022/10/15 09:18:22;;;;;;;12.27;5.83;;;14.90;99.90;;;14.18;100.00;96930.69;5032371;28;20403;-74
2022/10/15 09:20:50;;;;;;;5.35;2.55;;;15.00;99.90;;;14.21;100.00;96930.09;5031088;28;20411;-74
2022/10/15 09:23:19;;;;;;;8.32;5.32;;;15.00;99.90;;;14.23;100.00;96931.41;5031970;28;20478;-75
2022/10/15 09:25:56;;;;;;;4.80;3.92;;;15.00;99.90;;;14.25;100.00;96937.25;5032152;28;20445;-75
2022/10/15 09:28:26;;;;;;;2.28;1.63;;;15.10;99.90;;;14.33;100.00;96933.94;5032204;28;20399;-75
2022/10/15 09:30:56;;;;;;;1.40;0.80;;;15.10;99.90;;;14.32;100.00;96937.69;5032275;28;20404;-75
2022/10/15 09:33:36;;;;;;;2.88;1.10;;;15.10;99.90;;;14.29;100.00;96948.09;5031639;28;20406;-75
2022/10/15 09:36:19;;;;;;;1.52;1.10;;;15.10;99.90;;;14.33;100.00;96936.59;5031838;28;20411;-75
2022/10/15 09:38:58;;;;;;;2.55;1.52;;;15.10;99.90;;;14.48;100.00;96942.84;5032035;28;20888;-75
2022/10/15 09:41:35;;;;;;;1.50;0.93;;;15.20;99.90;;;14.49;100.00;96953.22;5031901;28;20407;-75
2022/10/15 09:44:01;;;;;;;1.90;0.93;;;15.30;99.90;;;14.43;100.00;96953.56;5031535;28;20552;-75
2022/10/15 09:46:28;;;;;;;10.43;7.38;;;15.20;99.90;;;14.42;100.00;96950.13;5031745;28;20483;-75
2022/10/15 09:49:02;;;;;;;7.40;6.25;;;15.20;99.90;;;14.55;100.00;96953.94;5031768;28;20399;-76
2022/10/15 09:51:34;;;;;;;2.90;1.10;;;15.30;99.90;;;14.52;100.00;96952.63;5030767;28;20414;-76
2022/10/15 09:54:08;;;;;;;1.10;0.93;;;15.30;99.90;;;14.71;100.00;96939.34;5031410;28;20406;-76
2022/10/15 09:56:38;;;;;;;1.70;1.10;;;15.40;99.90;;;14.59;100.00;96947.75;5031539;28;20415;-75
2022/10/15 09:59:04;;;;;;;1.10;1.00;;;15.40;99.90;;;14.73;100.00;96950.50;5031687;28;20838;-75
2022/10/15 10:01:32;;;;;;;4.57;1.10;;;15.50;99.90;;;14.82;100.00;96951.41;5031548;28;20404;-76
2022/10/15 10:04:13;;;;;;;1.40;0.80;;;15.60;99.90;;;14.83;100.00;96962.88;5031426;28;20758;-76
2022/10/15 10:06:50;;;;;;;2.45;0.90;;;15.60;99.90;;;14.82;100.00;96956.75;5031512;28;20502;-75
2022/10/15 10:09:20;;;;;;;1.10;0.90;;;15.60;99.90;;;14.94;100.00;96959.00;5031515;28;20399;-75
2022/10/15 10:14:29;;;;;;;1.90;0.80;;;15.70;99.90;;;14.92;100.00;96961.16;5028493;28;20419;-70
2022/10/15 10:17:16;;;;;;;1.98;1.00;;;15.70;99.90;;;14.95;100.00;96961.38;5031278;28;20395;-71
2022/10/15 10:19:44;;;;;;;4.68;1.10;;;15.70;99.90;;;15.04;100.00;96964.94;5031236;28;20912;-70
2022/10/15 10:22:18;;;;;;;1.52;0.90;;;15.80;99.90;;;15.18;100.00;96970.38;5031071;28;20415;-70